MMML/MXL METAR and TAF weather

Enter ICAO airport designator
Station Type Date Time Source
MMML METAR 2022/06/27 07:40 UTC NOAA

MMML 270740Z 14012KT 8SM SKC 30/17 A2996 RMK HZY


Station Type Date Time Source
MMML Decoded METAR 2022/06/27 07:40 UTC NOAA

Mexicali International Airport , Mexico (MMML) 32-38N 117-00W
Jun 27, 2022 - 03:40 AM EDT / 2022.06.27 0740 UTC
Wind: from the SE (140 degrees) at 14 MPH (12 KT):0
Visibility: 8 mile(s):0
Sky conditions: clear
Temperature: 86 F (30 C)
Dew Point: 62 F (17 C)
Relative Humidity: 45%
Pressure (altimeter): 29.96 in. Hg (1014 hPa)
ob: MMML 270740Z 14012KT 8SM SKC 30/17 A2996 RMK HZY
cycle: 7

Station Type Date Time Source
MMML TAF 2022/06/27 06:44 UTC NOAA

TAF MMML 270336Z 2706/2806 12010KT P6SM SKC
FM271800 14010KT P6SM SKC
FM280300 12005KT P6SM SKC

Example: see airport list